Time;durP1;ratioP1;P1;durP2;ratioP2;P2;SDS_P1;SDS_P2;PMS_P1;PMS_P2;Temp;Humidity;BMP_temperature;BMP_pressure;BME280_temperature;BME280_humidity;BME280_pressure;Samples;Min_cycle;Max_cycle;Signal;HPM_P1;HPM_P2
2022/10/14 00:39:43;;;;;;;30.00;24.83;;;;;;;;;;4949064;29;20467;-91
2022/10/14 01:09:57;;;;;;;35.23;28.10;;;;;;;;;;4943136;29;20459;-94
2022/10/14 01:27:17;;;;;;;32.67;23.90;;;;;;;;;;4955497;28;20474;-95
2022/10/14 01:51:40;;;;;;;30.80;24.80;;;;;;;;;;4951529;29;20554;-91
2022/10/14 02:01:54;;;;;;;33.27;25.17;;;;;;;;;;4951899;29;20475;-93
2022/10/14 02:04:59;;;;;;;31.30;24.03;;;;;;;;;;4946809;29;20524;-93
2022/10/14 02:08:07;;;;;;;31.10;25.03;;;;;;;;;;4950903;29;20467;-93
2022/10/14 02:17:47;;;;;;;28.90;25.30;;;;;;;;;;4945281;29;20460;-93
2022/10/14 02:27:30;;;;;;;30.60;23.67;;;;;;;;;;4951425;29;20478;-93
2022/10/14 02:30:37;;;;;;;32.70;25.50;;;;;;;;;;4936815;29;20519;-93
2022/10/14 02:33:32;;;;;;;30.40;24.23;;;;;;;;;;4999557;23;20513;-91
2022/10/14 02:36:25;;;;;;;32.30;25.67;;;;;;;;;;4993096;28;20455;-90
2022/10/14 02:45:35;;;;;;;36.77;26.80;;;;;;;;;;4989316;28;20478;-93
2022/10/14 02:48:25;;;;;;;35.00;26.67;;;;;;;;;;4985035;28;20438;-94
2022/10/14 02:51:15;;;;;;;34.93;25.20;;;;;;;;;;4977805;28;20461;-93
2022/10/14 02:54:08;;;;;;;33.87;26.00;;;;;;;;;;4971562;28;20459;-92
2022/10/14 02:56:57;;;;;;;36.23;26.43;;;;;;;;;;4985555;28;20461;-91
2022/10/14 02:59:48;;;;;;;37.90;27.67;;;;;;;;;;4991828;28;20470;-92
2022/10/14 03:02:37;;;;;;;33.13;25.17;;;;;;;;;;4982306;28;20553;-92
2022/10/14 03:05:26;;;;;;;31.70;25.80;;;;;;;;;;4982111;28;20482;-93
2022/10/14 03:08:16;;;;;;;31.53;24.83;;;;;;;;;;4982327;28;20466;-92
2022/10/14 03:11:11;;;;;;;36.00;27.00;;;;;;;;;;4981328;28;20459;-91
2022/10/14 03:14:01;;;;;;;32.63;25.73;;;;;;;;;;4990764;28;20474;-92
2022/10/14 03:16:50;;;;;;;35.50;28.07;;;;;;;;;;4990464;28;20454;-92
2022/10/14 03:19:39;;;;;;;36.20;28.00;;;;;;;;;;4990020;28;20461;-91
2022/10/14 03:22:28;;;;;;;37.10;25.90;;;;;;;;;;4987517;28;20478;-92
2022/10/14 03:25:18;;;;;;;31.50;25.47;;;;;;;;;;4991352;28;20466;-93
2022/10/14 03:28:12;;;;;;;35.97;25.80;;;;;;;;;;4991677;28;20470;-92
2022/10/14 03:31:01;;;;;;;33.90;26.03;;;;;;;;;;4985058;28;20442;-92
2022/10/14 03:33:51;;;;;;;38.87;28.00;;;;;;;;;;4981362;28;20482;-93
2022/10/14 03:36:41;;;;;;;37.90;27.10;;;;;;;;;;4987583;28;20454;-93
2022/10/14 03:39:30;;;;;;;34.93;25.50;;;;;;;;;;4995872;28;20439;-90
2022/10/14 03:42:20;;;;;;;38.13;26.30;;;;;;;;;;4994118;28;20481;-90
2022/10/14 03:45:12;;;;;;;31.53;25.23;;;;;;;;;;4978022;28;20455;-91
2022/10/14 03:48:02;;;;;;;35.70;24.73;;;;;;;;;;4993496;28;21194;-91
2022/10/14 03:50:54;;;;;;;35.00;25.13;;;;;;;;;;4991068;28;20538;-92
2022/10/14 03:53:46;;;;;;;36.10;24.97;;;;;;;;;;4981038;28;20529;-91
2022/10/14 03:56:36;;;;;;;36.10;26.17;;;;;;;;;;4985148;28;20451;-92
2022/10/14 03:59:24;;;;;;;35.50;25.77;;;;;;;;;;4990207;28;20477;-91
2022/10/14 04:02:16;;;;;;;35.37;27.50;;;;;;;;;;4990207;28;20817;-92
2022/10/14 04:05:05;;;;;;;37.33;25.50;;;;;;;;;;4993545;28;20460;-92
2022/10/14 04:07:54;;;;;;;32.33;25.87;;;;;;;;;;4978717;28;20450;-92
2022/10/14 04:10:44;;;;;;;31.03;23.97;;;;;;;;;;4997653;28;20457;-91
2022/10/14 04:13:35;;;;;;;31.23;22.90;;;;;;;;;;4997013;28;20458;-92
2022/10/14 04:16:24;;;;;;;32.97;24.33;;;;;;;;;;4982162;28;20443;-93
2022/10/14 04:19:18;;;;;;;33.90;25.57;;;;;;;;;;4976534;28;20462;-91
2022/10/14 04:22:10;;;;;;;29.50;23.70;;;;;;;;;;4983036;28;20505;-91
2022/10/14 04:25:00;;;;;;;35.63;27.27;;;;;;;;;;4987288;28;20451;-92
2022/10/14 04:30:52;;;;;;;35.77;25.90;;;;;;;;;;4974463;28;20461;-93
2022/10/14 04:33:41;;;;;;;35.23;24.50;;;;;;;;;;4987338;28;20484;-93
2022/10/14 04:36:32;;;;;;;41.30;29.53;;;;;;;;;;4989242;28;20447;-92
2022/10/14 04:39:23;;;;;;;53.90;27.37;;;;;;;;;;4982625;28;20504;-93
2022/10/14 04:42:15;;;;;;;38.50;27.40;;;;;;;;;;4974373;28;20476;-93
2022/10/14 04:45:04;;;;;;;33.90;26.37;;;;;;;;;;4980136;28;20465;-91
2022/10/14 04:47:53;;;;;;;35.67;26.70;;;;;;;;;;5001495;28;20522;-92
2022/10/14 04:50:43;;;;;;;35.60;26.40;;;;;;;;;;5000469;28;20457;-91
2022/10/14 04:53:35;;;;;;;34.37;25.83;;;;;;;;;;4998247;28;20470;-90
2022/10/14 04:56:26;;;;;;;32.80;24.37;;;;;;;;;;4998465;28;20431;-91
2022/10/14 04:59:28;;;;;;;34.90;26.07;;;;;;;;;;5000243;28;20454;-91
2022/10/14 05:02:19;;;;;;;33.40;25.03;;;;;;;;;;4999857;28;20464;-91
2022/10/14 05:05:09;;;;;;;38.20;26.30;;;;;;;;;;4992751;28;20470;-92
2022/10/14 05:10:57;;;;;;;35.97;26.10;;;;;;;;;;5000441;28;20458;-93
2022/10/14 05:13:58;;;;;;;32.57;23.20;;;;;;;;;;5100067;23;20569;-91
2022/10/14 05:16:47;;;;;;;39.40;26.30;;;;;;;;;;4992247;28;20461;-91
2022/10/14 05:19:38;;;;;;;35.17;25.30;;;;;;;;;;4990141;28;20443;-91
2022/10/14 05:22:34;;;;;;;38.30;26.03;;;;;;;;;;4985029;28;20464;-92
2022/10/14 05:25:23;;;;;;;33.47;25.33;;;;;;;;;;4966303;28;20467;-92
2022/10/14 05:28:19;;;;;;;34.80;24.63;;;;;;;;;;4971727;28;20452;-91
2022/10/14 05:31:16;;;;;;;35.83;23.50;;;;;;;;;;4967080;28;20440;-90
2022/10/14 05:34:10;;;;;;;36.30;26.13;;;;;;;;;;4963519;28;20513;-92
2022/10/14 05:37:00;;;;;;;33.57;25.23;;;;;;;;;;4975592;28;20455;-92
2022/10/14 05:39:50;;;;;;;35.17;26.50;;;;;;;;;;4977376;28;20443;-91
2022/10/14 05:42:40;;;;;;;36.10;25.93;;;;;;;;;;4968459;28;20571;-92
2022/10/14 05:45:47;;;;;;;44.43;29.30;;;;;;;;;;4974047;28;20456;-92
2022/10/14 05:48:36;;;;;;;37.80;26.40;;;;;;;;;;4969279;28;20931;-92
2022/10/14 05:51:39;;;;;;;46.00;29.67;;;;;;;;;;4974094;28;20432;-91
2022/10/14 05:54:30;;;;;;;44.83;29.37;;;;;;;;;;4974376;29;20439;-92
2022/10/14 05:57:19;;;;;;;40.50;26.00;;;;;;;;;;4974240;28;20467;-92
2022/10/14 06:03:15;;;;;;;42.23;27.63;;;;;;;;;;4964883;28;20550;-91
2022/10/14 06:06:05;;;;;;;43.00;29.00;;;;;;;;;;4963982;28;20468;-91
2022/10/14 06:08:55;;;;;;;39.50;27.30;;;;;;;;;;4974719;28;20453;-91
2022/10/14 06:11:45;;;;;;;45.33;30.37;;;;;;;;;;4965003;28;20487;-93
2022/10/14 06:14:35;;;;;;;45.97;30.30;;;;;;;;;;4973929;28;20478;-91
2022/10/14 06:17:25;;;;;;;44.33;28.80;;;;;;;;;;4968602;28;20451;-92
2022/10/14 06:20:16;;;;;;;40.73;28.00;;;;;;;;;;4974188;28;20453;-93
2022/10/14 06:23:06;;;;;;;47.57;31.50;;;;;;;;;;4973550;28;20477;-92
2022/10/14 06:25:57;;;;;;;47.60;32.30;;;;;;;;;;4970038;29;20478;-93
2022/10/14 06:28:47;;;;;;;43.97;31.30;;;;;;;;;;4970558;28;20501;-92
2022/10/14 06:31:38;;;;;;;47.20;32.30;;;;;;;;;;4971582;28;20455;-90
2022/10/14 06:34:35;;;;;;;45.97;31.30;;;;;;;;;;4970037;28;20471;-91
2022/10/14 06:37:26;;;;;;;43.00;29.50;;;;;;;;;;4969517;28;20495;-92
2022/10/14 06:40:15;;;;;;;49.27;32.17;;;;;;;;;;4974445;28;20503;-92
2022/10/14 06:43:12;;;;;;;43.27;30.00;;;;;;;;;;4969067;28;20533;-92
2022/10/14 06:46:15;;;;;;;42.10;28.47;;;;;;;;;;4964448;28;20474;-93
2022/10/14 06:49:05;;;;;;;45.67;30.10;;;;;;;;;;4966938;28;20523;-92
2022/10/14 06:51:54;;;;;;;42.00;30.23;;;;;;;;;;4968894;29;21118;-92
2022/10/14 06:54:48;;;;;;;41.17;28.50;;;;;;;;;;4967120;28;20460;-93
2022/10/14 06:57:39;;;;;;;42.37;28.97;;;;;;;;;;4961468;28;20447;-93
2022/10/14 07:00:29;;;;;;;40.53;29.70;;;;;;;;;;4969486;29;20462;-93
2022/10/14 07:03:19;;;;;;;44.67;31.67;;;;;;;;;;4965938;28;20539;-93
2022/10/14 07:06:10;;;;;;;42.30;31.20;;;;;;;;;;4963015;29;20455;-92
2022/10/14 07:09:06;;;;;;;38.93;28.77;;;;;;;;;;4962171;29;20551;-92
2022/10/14 07:11:57;;;;;;;41.87;28.80;;;;;;;;;;4966421;29;20965;-92
2022/10/14 07:17:50;;;;;;;39.60;28.83;;;;;;;;;;4968273;29;20477;-92
2022/10/14 07:20:38;;;;;;;40.57;30.00;;;;;;;;;;4977513;28;20455;-93
2022/10/14 07:23:28;;;;;;;40.73;30.50;;;;;;;;;;4972471;28;20491;-93
2022/10/14 07:26:17;;;;;;;46.33;32.20;;;;;;;;;;4970960;29;20469;-92
2022/10/14 07:29:10;;;;;;;43.30;30.53;;;;;;;;;;4976126;28;20474;-93
2022/10/14 07:32:01;;;;;;;41.03;30.77;;;;;;;;;;4970575;28;20463;-91
2022/10/14 07:34:53;;;;;;;50.40;32.87;;;;;;;;;;4966042;28;20450;-93
2022/10/14 07:37:43;;;;;;;44.27;31.50;;;;;;;;;;4970105;28;20459;-90
2022/10/14 07:40:34;;;;;;;43.50;31.50;;;;;;;;;;4971081;28;20464;-90
2022/10/14 07:43:44;;;;;;;47.20;33.70;;;;;;;;;;4966292;28;20459;-89
2022/10/14 07:46:40;;;;;;;42.83;31.00;;;;;;;;;;4970803;28;20459;-89
2022/10/14 07:49:33;;;;;;;45.57;33.50;;;;;;;;;;4980848;28;20439;-89
2022/10/14 07:52:22;;;;;;;44.90;31.40;;;;;;;;;;4970596;28;20534;-91
2022/10/14 07:55:15;;;;;;;47.73;33.73;;;;;;;;;;4978582;28;20474;-91
2022/10/14 07:58:08;;;;;;;47.30;33.60;;;;;;;;;;4980616;28;20463;-90
2022/10/14 08:00:58;;;;;;;47.37;34.60;;;;;;;;;;4970964;28;20497;-91
2022/10/14 08:03:50;;;;;;;48.27;33.63;;;;;;;;;;4976376;28;20496;-93
2022/10/14 08:06:40;;;;;;;46.57;34.40;;;;;;;;;;4978675;28;20486;-92
2022/10/14 08:09:29;;;;;;;44.57;32.57;;;;;;;;;;4977832;28;20478;-91
2022/10/14 08:12:18;;;;;;;43.23;33.07;;;;;;;;;;4976288;28;20538;-92
2022/10/14 08:15:10;;;;;;;45.93;33.30;;;;;;;;;;4972542;28;20442;-91
2022/10/14 08:18:06;;;;;;;49.07;34.33;;;;;;;;;;4974078;28;20450;-91
2022/10/14 08:20:56;;;;;;;42.07;32.93;;;;;;;;;;4969585;28;20436;-93
2022/10/14 08:23:46;;;;;;;39.00;30.23;;;;;;;;;;4966538;28;20483;-92
2022/10/14 08:26:49;;;;;;;38.37;29.30;;;;;;;;;;4974664;28;20435;-93
2022/10/14 08:29:39;;;;;;;41.77;30.20;;;;;;;;;;4977683;28;20487;-92
2022/10/14 08:32:29;;;;;;;41.17;30.67;;;;;;;;;;4974841;28;20478;-91
2022/10/14 08:35:22;;;;;;;40.57;30.60;;;;;;;;;;4974142;28;20446;-94
2022/10/14 08:38:16;;;;;;;39.97;30.13;;;;;;;;;;4971789;28;20483;-89
2022/10/14 08:41:15;;;;;;;40.43;30.63;;;;;;;;;;4970393;28;20459;-93
2022/10/14 08:44:10;;;;;;;41.13;30.13;;;;;;;;;;4971059;28;20486;-91
2022/10/14 08:47:00;;;;;;;40.50;30.07;;;;;;;;;;4973814;28;20526;-93
2022/10/14 08:53:05;;;;;;;40.23;29.80;;;;;;;;;;4968571;28;20463;-92
2022/10/14 08:56:09;;;;;;;44.07;30.47;;;;;;;;;;4966465;28;20519;-93
2022/10/14 08:59:14;;;;;;;41.37;30.20;;;;;;;;;;4971450;28;20539;-92
2022/10/14 09:02:20;;;;;;;34.70;28.00;;;;;;;;;;4966681;28;20469;-92
2022/10/14 09:17:02;;;;;;;33.93;27.47;;;;;;;;;;4951806;28;20560;-91
2022/10/14 09:20:20;;;;;;;32.47;25.97;;;;;;;;;;4956370;28;20440;-92
2022/10/14 09:33:02;;;;;;;26.57;22.00;;;;;;;;;;4954447;29;20503;-95
2022/10/14 09:36:06;;;;;;;26.53;21.97;;;;;;;;;;4960692;28;20518;-92
2022/10/14 09:38:56;;;;;;;28.83;22.37;;;;;;;;;;4948505;28;20472;-92
2022/10/14 09:42:03;;;;;;;27.00;22.10;;;;;;;;;;4950282;28;20446;-92
2022/10/14 09:48:52;;;;;;;26.60;21.97;;;;;;;;;;4955292;28;20475;-94
2022/10/14 09:51:44;;;;;;;30.47;24.43;;;;;;;;;;4950307;28;20447;-93
2022/10/14 10:04:39;;;;;;;27.90;22.50;;;;;;;;;;4959957;28;20508;-92
2022/10/14 10:14:24;;;;;;;28.30;21.10;;;;;;;;;;4956926;28;20523;-93
2022/10/14 10:17:16;;;;;;;25.40;20.50;;;;;;;;;;4954021;28;20444;-94
2022/10/14 10:30:56;;;;;;;22.83;19.87;;;;;;;;;;4958843;28;20429;-93
2022/10/14 10:37:52;;;;;;;23.93;19.97;;;;;;;;;;4949087;28;20462;-92
2022/10/14 10:47:45;;;;;;;23.57;20.27;;;;;;;;;;4970902;28;20482;-90
2022/10/14 10:51:00;;;;;;;23.47;20.67;;;;;;;;;;4944485;28;20439;-94
2022/10/14 10:57:30;;;;;;;23.23;19.43;;;;;;;;;;5015629;23;20510;-93
2022/10/14 11:00:22;;;;;;;23.80;20.50;;;;;;;;;;4942960;29;20448;-93
2022/10/14 11:03:24;;;;;;;21.23;18.80;;;;;;;;;;4942125;29;20455;-94
2022/10/14 11:16:09;;;;;;;19.57;16.80;;;;;;;;;;4863385;29;20518;-93
2022/10/14 11:19:02;;;;;;;19.20;16.20;;;;;;;;;;4937193;29;20475;-94
2022/10/14 11:21:55;;;;;;;21.57;18.30;;;;;;;;;;4939358;29;20515;-94
2022/10/14 11:24:53;;;;;;;20.47;17.30;;;;;;;;;;4932003;29;20453;-93
2022/10/14 11:27:46;;;;;;;19.27;16.70;;;;;;;;;;4930881;29;20477;-93
2022/10/14 11:30:48;;;;;;;20.03;17.87;;;;;;;;;;4932463;29;20475;-93
2022/10/14 11:33:48;;;;;;;20.13;17.93;;;;;;;;;;4931002;29;20457;-93
2022/10/14 11:36:42;;;;;;;22.07;18.30;;;;;;;;;;4935162;29;20465;-93
2022/10/14 11:39:38;;;;;;;21.27;18.23;;;;;;;;;;4929643;29;20433;-92
2022/10/14 11:42:34;;;;;;;21.97;18.20;;;;;;;;;;4932284;29;20464;-93
2022/10/14 11:45:41;;;;;;;22.47;18.80;;;;;;;;;;4938638;29;20448;-94
2022/10/14 11:48:35;;;;;;;22.07;19.37;;;;;;;;;;4936360;29;20440;-93
2022/10/14 11:51:29;;;;;;;20.73;17.90;;;;;;;;;;4938570;28;20497;-95
2022/10/14 11:54:32;;;;;;;21.53;17.73;;;;;;;;;;4938075;29;20460;-93
2022/10/14 12:04:04;;;;;;;20.87;17.67;;;;;;;;;;4937883;29;20443;-94
2022/10/14 12:07:00;;;;;;;20.77;18.57;;;;;;;;;;4938619;29;20475;-94
2022/10/14 12:09:53;;;;;;;22.07;18.00;;;;;;;;;;4940878;29;20472;-94
2022/10/14 12:15:56;;;;;;;18.07;16.10;;;;;;;;;;4938930;29;20483;-93
2022/10/14 12:18:49;;;;;;;21.40;18.00;;;;;;;;;;4924855;29;20468;-93
2022/10/14 12:21:47;;;;;;;18.70;16.70;;;;;;;;;;4931260;29;20465;-92
2022/10/14 12:24:43;;;;;;;18.43;16.43;;;;;;;;;;4932773;29;20509;-95
2022/10/14 12:30:46;;;;;;;18.73;16.70;;;;;;;;;;4936568;29;20475;-94
2022/10/14 12:33:51;;;;;;;15.40;13.90;;;;;;;;;;4940567;29;20468;-94
2022/10/14 12:39:55;;;;;;;17.13;15.33;;;;;;;;;;4939459;29;20460;-95
2022/10/14 12:46:27;;;;;;;18.30;15.80;;;;;;;;;;4938109;29;20476;-93
2022/10/14 12:49:30;;;;;;;17.27;15.23;;;;;;;;;;4941862;29;20517;-94
2022/10/14 12:52:29;;;;;;;15.30;13.70;;;;;;;;;;4934258;28;21001;-94
2022/10/14 12:58:33;;;;;;;15.60;13.97;;;;;;;;;;4934461;29;20455;-94
2022/10/14 13:01:39;;;;;;;15.80;11.70;;;;;;;;;;4928370;29;20472;-95
2022/10/14 13:08:13;;;;;;;11.60;10.60;;;;;;;;;;4935284;29;20487;-93
2022/10/14 13:14:31;;;;;;;11.70;10.60;;;;;;;;;;4939366;29;20452;-95
2022/10/14 13:20:53;;;;;;;10.70;9.80;;;;;;;;;;4939630;29;20452;-93
2022/10/14 13:23:47;;;;;;;10.93;9.90;;;;;;;;;;4934776;29;20448;-95
2022/10/14 13:26:47;;;;;;;11.43;10.43;;;;;;;;;;4937232;29;20528;-94
2022/10/14 13:36:18;;;;;;;12.03;10.90;;;;;;;;;;4935125;28;20512;-92
2022/10/14 13:45:44;;;;;;;10.70;9.70;;;;;;;;;;4934465;29;20541;-92
2022/10/14 13:48:34;;;;;;;12.13;11.03;;;;;;;;;;4932586;29;20530;-93
2022/10/14 13:51:39;;;;;;;11.23;10.13;;;;;;;;;;4941502;29;20499;-95
2022/10/14 13:54:33;;;;;;;10.83;9.77;;;;;;;;;;4934133;29;20595;-95
2022/10/14 13:57:23;;;;;;;12.70;10.20;;;;;;;;;;4930592;29;20499;-94
2022/10/14 14:00:56;;;;;;;11.70;10.03;;;;;;;;;;4930138;29;20449;-93
2022/10/14 14:03:57;;;;;;;12.23;10.93;;;;;;;;;;4927693;29;20480;-92
2022/10/14 14:06:53;;;;;;;11.60;10.40;;;;;;;;;;4929395;29;20491;-93
2022/10/14 14:10:12;;;;;;;13.10;11.80;;;;;;;;;;4933453;29;20497;-95
2022/10/14 14:13:05;;;;;;;14.40;10.60;;;;;;;;;;4932476;29;20469;-93
2022/10/14 14:15:56;;;;;;;12.40;11.20;;;;;;;;;;4921159;29;20469;-93
2022/10/14 14:18:51;;;;;;;12.13;10.93;;;;;;;;;;4924166;29;20464;-93
2022/10/14 14:22:07;;;;;;;12.07;10.97;;;;;;;;;;4926915;29;20896;-93
2022/10/14 14:25:10;;;;;;;12.50;11.20;;;;;;;;;;4927670;29;20467;-93
2022/10/14 14:28:31;;;;;;;12.07;10.97;;;;;;;;;;4926467;29;20476;-93
2022/10/14 14:31:23;;;;;;;12.93;10.83;;;;;;;;;;4925691;29;20948;-92
2022/10/14 14:37:29;;;;;;;11.63;10.53;;;;;;;;;;4933432;29;20468;-93
2022/10/14 14:40:41;;;;;;;12.97;11.67;;;;;;;;;;4919545;29;20449;-92
2022/10/14 14:43:35;;;;;;;11.33;10.23;;;;;;;;;;4927541;29;20475;-92
2022/10/14 14:46:38;;;;;;;11.13;10.13;;;;;;;;;;4925298;29;20492;-93
2022/10/14 14:49:29;;;;;;;11.90;10.80;;;;;;;;;;4922402;29;20468;-94
2022/10/14 14:52:20;;;;;;;11.13;10.13;;;;;;;;;;4934791;29;20469;-94
2022/10/14 14:55:24;;;;;;;12.10;10.90;;;;;;;;;;4939724;29;20449;-95
2022/10/14 14:58:28;;;;;;;12.27;11.10;;;;;;;;;;4938628;29;20445;-95
2022/10/14 15:01:21;;;;;;;12.37;11.07;;;;;;;;;;4935725;29;20463;-92
2022/10/14 15:04:27;;;;;;;12.37;11.27;;;;;;;;;;4932138;29;20456;-93
2022/10/14 15:07:20;;;;;;;12.50;11.30;;;;;;;;;;4933057;29;20488;-92
2022/10/14 15:10:21;;;;;;;11.00;9.90;;;;;;;;;;4925143;29;20521;-93
2022/10/14 15:13:27;;;;;;;13.03;11.73;;;;;;;;;;4925266;29;20512;-93
2022/10/14 15:16:33;;;;;;;12.13;11.03;;;;;;;;;;4933935;29;20484;-92
2022/10/14 15:19:36;;;;;;;12.87;11.57;;;;;;;;;;4936312;29;20465;-94
2022/10/14 15:22:39;;;;;;;11.67;10.57;;;;;;;;;;4936093;29;21022;-93
2022/10/14 15:25:30;;;;;;;14.07;12.43;;;;;;;;;;4926988;29;20468;-92
2022/10/14 15:28:30;;;;;;;12.80;11.60;;;;;;;;;;4927975;29;20472;-95
2022/10/14 15:31:19;;;;;;;12.97;11.67;;;;;;;;;;4932849;29;20480;-94
2022/10/14 15:34:17;;;;;;;12.97;11.67;;;;;;;;;;4928440;29;20461;-93
2022/10/14 15:37:07;;;;;;;13.13;11.87;;;;;;;;;;4924129;29;20560;-93
2022/10/14 15:40:05;;;;;;;12.60;11.40;;;;;;;;;;4938564;29;20461;-92
2022/10/14 15:42:58;;;;;;;12.90;11.67;;;;;;;;;;4931248;29;20545;-93
2022/10/14 15:47:17;;;;;;;13.37;12.10;;;;;;;;;;4931225;29;20572;-92
2022/10/14 15:48:59;;;;;;;12.13;10.90;;;;;;;;;;4924903;29;20483;-93
2022/10/14 15:51:52;;;;;;;13.23;11.93;;;;;;;;;;4933521;29;20495;-93
2022/10/14 15:54:46;;;;;;;13.27;11.97;;;;;;;;;;4927818;29;20456;-93
2022/10/14 15:57:38;;;;;;;12.10;10.90;;;;;;;;;;4924666;29;20486;-92
2022/10/14 16:00:29;;;;;;;12.60;11.30;;;;;;;;;;4933377;29;20452;-93
2022/10/14 16:03:19;;;;;;;13.80;12.50;;;;;;;;;;4929795;29;20472;-92
2022/10/14 16:06:28;;;;;;;12.67;11.47;;;;;;;;;;4929050;29;20491;-93
2022/10/14 16:09:27;;;;;;;13.40;12.00;;;;;;;;;;4922871;29;20460;-92
2022/10/14 16:12:17;;;;;;;14.63;13.27;;;;;;;;;;4928716;29;20472;-92
2022/10/14 16:15:21;;;;;;;13.20;11.83;;;;;;;;;;4926824;29;20543;-93
2022/10/14 16:18:10;;;;;;;13.80;12.40;;;;;;;;;;4930049;29;20464;-94
2022/10/14 16:21:15;;;;;;;13.33;12.00;;;;;;;;;;4930887;29;20543;-92
2022/10/14 16:24:17;;;;;;;12.20;11.00;;;;;;;;;;5118497;27;20573;-92
2022/10/14 16:27:23;;;;;;;12.87;11.67;;;;;;;;;;5107190;28;20540;-93
2022/10/14 16:33:53;;;;;;;13.43;11.83;;;;;;;;;;5115567;28;20551;-92
2022/10/14 16:36:56;;;;;;;12.07;10.80;;;;;;;;;;5110300;28;20476;-93
2022/10/14 16:43:00;;;;;;;13.90;11.97;;;;;;;;;;5106990;28;20445;-93
2022/10/14 16:45:57;;;;;;;13.00;11.80;;;;;;;;;;5109757;28;20471;-92
2022/10/14 16:48:47;;;;;;;12.70;11.50;;;;;;;;;;5112967;28;20445;-92
2022/10/14 16:51:38;;;;;;;13.20;11.90;;;;;;;;;;5118616;28;20456;-92
2022/10/14 16:54:44;;;;;;;13.17;11.77;;;;;;;;;;5139957;27;20532;-94
2022/10/14 16:57:37;;;;;;;12.40;11.10;;;;;;;;;;5125925;27;20475;-93
2022/10/14 17:00:34;;;;;;;11.77;10.57;;;;;;;;;;5132081;28;20467;-93
2022/10/14 17:06:43;;;;;;;11.83;10.70;;;;;;;;;;5129473;27;20474;-93
2022/10/14 17:09:50;;;;;;;11.50;10.40;;;;;;;;;;5141519;27;20458;-92
2022/10/14 17:13:01;;;;;;;12.50;11.20;;;;;;;;;;5131429;27;20450;-93
2022/10/14 17:15:51;;;;;;;12.33;11.10;;;;;;;;;;5133851;27;20460;-93
2022/10/14 17:18:40;;;;;;;13.17;11.77;;;;;;;;;;5133034;27;20444;-93
2022/10/14 17:21:33;;;;;;;12.80;11.00;;;;;;;;;;5134835;27;20489;-92
2022/10/14 17:24:22;;;;;;;13.17;11.77;;;;;;;;;;5129761;27;20881;-92
2022/10/14 17:27:30;;;;;;;12.83;11.53;;;;;;;;;;5136854;27;20479;-93
2022/10/14 17:30:19;;;;;;;12.97;11.70;;;;;;;;;;5130273;27;20447;-94
2022/10/14 17:33:13;;;;;;;12.87;11.57;;;;;;;;;;5142878;27;20446;-94
2022/10/14 17:36:07;;;;;;;12.87;11.57;;;;;;;;;;5132317;27;20474;-92
2022/10/14 17:38:56;;;;;;;12.50;11.30;;;;;;;;;;5131041;27;20440;-92
2022/10/14 17:41:46;;;;;;;12.40;11.20;;;;;;;;;;5131634;27;20439;-91
2022/10/14 17:44:38;;;;;;;12.60;11.07;;;;;;;;;;5153443;27;20477;-92
2022/10/14 17:47:34;;;;;;;13.93;10.73;;;;;;;;;;5129139;27;20468;-92
2022/10/14 17:50:23;;;;;;;11.60;10.50;;;;;;;;;;5145917;27;20447;-93
2022/10/14 17:53:13;;;;;;;11.77;10.57;;;;;;;;;;5134419;27;20464;-92
2022/10/14 17:56:16;;;;;;;11.90;10.70;;;;;;;;;;5140047;27;20481;-92
2022/10/14 18:02:18;;;;;;;11.60;10.40;;;;;;;;;;5130083;28;20452;-92
2022/10/14 18:05:23;;;;;;;12.60;11.30;;;;;;;;;;5126601;28;20471;-93
2022/10/14 18:08:13;;;;;;;11.50;10.27;;;;;;;;;;5111911;28;20445;-93
2022/10/14 18:11:11;;;;;;;11.17;10.07;;;;;;;;;;5116945;28;20447;-93
2022/10/14 18:14:09;;;;;;;10.73;9.73;;;;;;;;;;5123476;28;20444;-93
2022/10/14 18:16:59;;;;;;;10.13;9.13;;;;;;;;;;5116636;28;20476;-93
2022/10/14 18:19:53;;;;;;;9.93;8.93;;;;;;;;;;5121375;27;20435;-95
2022/10/14 18:22:42;;;;;;;9.97;9.00;;;;;;;;;;5122612;28;20453;-93
2022/10/14 18:25:36;;;;;;;9.97;9.07;;;;;;;;;;5124156;27;20451;-93
2022/10/14 18:28:26;;;;;;;10.77;8.37;;;;;;;;;;5125719;28;20448;-93
2022/10/14 18:31:16;;;;;;;10.30;9.30;;;;;;;;;;5120302;27;20449;-92
2022/10/14 18:34:09;;;;;;;9.73;8.53;;;;;;;;;;5142222;27;21053;-92
2022/10/14 18:40:04;;;;;;;8.90;8.10;;;;;;;;;;5141652;27;20439;-93
2022/10/14 18:42:56;;;;;;;8.53;7.77;;;;;;;;;;5140654;27;20451;-94
2022/10/14 18:45:46;;;;;;;10.33;9.07;;;;;;;;;;5132844;27;20436;-92
2022/10/14 18:48:34;;;;;;;8.50;7.70;;;;;;;;;;5147207;27;20445;-93
2022/10/14 18:51:27;;;;;;;8.43;7.73;;;;;;;;;;5141547;27;20466;-93
2022/10/14 18:54:18;;;;;;;9.47;8.57;;;;;;;;;;5143434;27;20466;-94
2022/10/14 18:57:08;;;;;;;9.40;8.50;;;;;;;;;;5137120;27;20474;-94
2022/10/14 18:59:57;;;;;;;9.37;8.10;;;;;;;;;;5155675;27;20450;-94
2022/10/14 19:02:50;;;;;;;9.10;8.20;;;;;;;;;;5140633;27;20450;-93
2022/10/14 19:05:44;;;;;;;9.07;8.27;;;;;;;;;;5142959;27;20443;-93
2022/10/14 19:14:58;;;;;;;8.53;7.83;;;;;;;;;;5139289;27;20525;-92
2022/10/14 19:17:52;;;;;;;8.80;8.00;;;;;;;;;;5157380;27;20489;-93
2022/10/14 19:20:44;;;;;;;10.10;8.03;;;;;;;;;;5140118;27;20784;-93
2022/10/14 19:23:33;;;;;;;9.03;8.17;;;;;;;;;;5137553;27;20461;-93
2022/10/14 19:26:22;;;;;;;8.47;7.67;;;;;;;;;;5160964;27;20467;-95
2022/10/14 19:29:16;;;;;;;8.37;7.67;;;;;;;;;;5140204;27;20455;-93
2022/10/14 19:32:05;;;;;;;8.77;7.70;;;;;;;;;;5140388;27;20444;-93
2022/10/14 19:34:56;;;;;;;9.13;8.33;;;;;;;;;;5139506;27;20440;-94
2022/10/14 19:37:45;;;;;;;9.10;8.20;;;;;;;;;;5140792;27;20459;-94
2022/10/14 19:40:34;;;;;;;8.40;7.70;;;;;;;;;;5142135;27;20449;-92
2022/10/14 19:43:24;;;;;;;9.17;8.27;;;;;;;;;;5140325;27;20456;-93
2022/10/14 19:46:18;;;;;;;8.53;7.40;;;;;;;;;;5136405;27;20471;-93
2022/10/14 19:49:13;;;;;;;8.47;7.67;;;;;;;;;;5144283;27;20466;-93
2022/10/14 19:52:04;;;;;;;8.50;7.70;;;;;;;;;;5136488;27;20480;-95
2022/10/14 19:54:53;;;;;;;8.90;8.07;;;;;;;;;;5135537;27;20489;-93
2022/10/14 19:57:42;;;;;;;8.00;7.30;;;;;;;;;;5140362;27;20460;-93
2022/10/14 20:00:31;;;;;;;8.30;7.10;;;;;;;;;;5146392;27;20461;-94
2022/10/14 20:03:24;;;;;;;8.60;7.80;;;;;;;;;;5133049;27;20527;-94
2022/10/14 20:06:22;;;;;;;9.80;8.20;;;;;;;;;;5130725;27;20468;-93
2022/10/14 20:09:14;;;;;;;8.57;7.77;;;;;;;;;;5132323;27;20451;-94
2022/10/14 20:12:17;;;;;;;7.40;6.70;;;;;;;;;;5138565;27;20980;-93
2022/10/14 20:15:12;;;;;;;8.20;7.40;;;;;;;;;;5143862;27;20518;-93
2022/10/14 20:18:18;;;;;;;7.80;7.20;;;;;;;;;;5135753;27;20972;-94
2022/10/14 20:21:13;;;;;;;8.13;7.40;;;;;;;;;;5144444;27;20469;-95
2022/10/14 20:24:04;;;;;;;8.30;7.60;;;;;;;;;;5141681;27;20952;-93
2022/10/14 20:26:55;;;;;;;9.30;8.37;;;;;;;;;;5156831;27;20466;-93
2022/10/14 20:29:48;;;;;;;8.20;7.40;;;;;;;;;;5132124;27;20530;-93
2022/10/14 20:32:38;;;;;;;8.73;7.93;;;;;;;;;;5130627;27;20443;-93
2022/10/14 20:35:32;;;;;;;8.20;7.40;;;;;;;;;;5134394;27;20451;-93
2022/10/14 20:38:29;;;;;;;8.40;7.70;;;;;;;;;;5136139;27;20446;-92
2022/10/14 20:41:24;;;;;;;7.73;7.13;;;;;;;;;;5141968;27;20452;-93
2022/10/14 20:44:15;;;;;;;7.50;6.90;;;;;;;;;;5139629;27;20556;-93
2022/10/14 20:47:12;;;;;;;7.77;7.07;;;;;;;;;;5139392;27;20464;-92
2022/10/14 20:50:04;;;;;;;7.60;7.00;;;;;;;;;;5141353;27;20456;-94
2022/10/14 20:52:53;;;;;;;8.30;7.60;;;;;;;;;;5143233;27;20451;-95
2022/10/14 20:59:16;;;;;;;8.63;7.83;;;;;;;;;;5148894;27;20521;-95
2022/10/14 21:05:10;;;;;;;8.10;7.40;;;;;;;;;;5131654;27;20498;-94
2022/10/14 21:11:05;;;;;;;9.53;8.53;;;;;;;;;;5141569;27;20535;-93
2022/10/14 21:14:09;;;;;;;7.87;7.07;;;;;;;;;;5139640;27;20447;-92
2022/10/14 21:17:01;;;;;;;8.53;7.83;;;;;;;;;;5148142;27;20464;-93
2022/10/14 21:22:58;;;;;;;9.43;8.53;;;;;;;;;;5126609;27;20447;-92
2022/10/14 21:25:56;;;;;;;9.10;8.30;;;;;;;;;;5132588;27;20467;-94
2022/10/14 21:28:45;;;;;;;8.73;7.93;;;;;;;;;;5134890;27;20443;-94
2022/10/14 21:31:49;;;;;;;7.53;6.93;;;;;;;;;;5131304;27;20815;-92
2022/10/14 21:37:45;;;;;;;9.70;8.17;;;;;;;;;;5133707;27;20462;-92
2022/10/14 21:40:34;;;;;;;9.57;8.63;;;;;;;;;;5132056;27;20451;-94
2022/10/14 21:43:38;;;;;;;8.63;7.83;;;;;;;;;;5136685;27;20543;-93
2022/10/14 21:52:47;;;;;;;8.23;7.53;;;;;;;;;;5136280;27;20443;-91
2022/10/14 21:55:36;;;;;;;8.30;7.50;;;;;;;;;;5143475;27;20438;-93
2022/10/14 21:58:32;;;;;;;8.17;7.43;;;;;;;;;;5137626;27;20450;-92
2022/10/14 22:01:43;;;;;;;8.53;7.60;;;;;;;;;;5144420;27;20540;-92
2022/10/14 22:04:44;;;;;;;8.20;7.50;;;;;;;;;;5142052;27;20482;-94
2022/10/14 22:07:35;;;;;;;8.50;7.80;;;;;;;;;;5142834;27;20443;-94
2022/10/14 22:10:46;;;;;;;7.80;7.10;;;;;;;;;;5143174;27;20452;-92
2022/10/14 22:16:48;;;;;;;8.00;7.40;;;;;;;;;;5149876;27;20498;-93
2022/10/14 22:19:52;;;;;;;8.27;7.57;;;;;;;;;;5147547;27;20451;-94
2022/10/14 22:22:42;;;;;;;10.13;8.43;;;;;;;;;;5149631;27;20454;-93